sensor_id;sensor_type;location;lat;lon;timestamp;P1;durP1;ratioP1;P2;durP2;ratioP2
42760;SDS011;31672;47.638;19.026;2023-05-14T00:04:06;6.70;;;5.60;;
42760;SDS011;31672;47.638;19.026;2023-05-14T00:09:10;6.17;;;4.87;;
42760;SDS011;31672;47.638;19.026;2023-05-14T00:14:14;7.67;;;6.17;;
42760;SDS011;31672;47.638;19.026;2023-05-14T00:19:17;8.00;;;5.40;;
42760;SDS011;31672;47.638;19.026;2023-05-14T00:24:20;6.30;;;5.07;;
42760;SDS011;31672;47.638;19.026;2023-05-14T00:29:23;7.27;;;5.10;;
42760;SDS011;31672;47.638;19.026;2023-05-14T00:34:26;6.40;;;4.87;;
42760;SDS011;31672;47.638;19.026;2023-05-14T00:39:29;7.00;;;5.60;;
42760;SDS011;31672;47.638;19.026;2023-05-14T00:44:32;5.03;;;3.70;;
42760;SDS011;31672;47.638;19.026;2023-05-14T00:49:35;6.00;;;4.50;;
42760;SDS011;31672;47.638;19.026;2023-05-14T00:54:40;6.60;;;4.70;;
42760;SDS011;31672;47.638;19.026;2023-05-14T00:59:43;5.70;;;4.57;;
42760;SDS011;31672;47.638;19.026;2023-05-14T01:04:47;8.20;;;5.90;;
42760;SDS011;31672;47.638;19.026;2023-05-14T01:09:56;8.13;;;6.07;;
42760;SDS011;31672;47.638;19.026;2023-05-14T01:15:22;8.32;;;6.45;;
42760;SDS011;31672;47.638;19.026;2023-05-14T01:20:31;6.77;;;5.50;;
42760;SDS011;31672;47.638;19.026;2023-05-14T01:25:35;7.73;;;3.93;;
42760;SDS011;31672;47.638;19.026;2023-05-14T01:30:39;5.87;;;5.00;;
42760;SDS011;31672;47.638;19.026;2023-05-14T01:35:49;10.05;;;5.32;;
42760;SDS011;31672;47.638;19.026;2023-05-14T01:40:54;5.60;;;4.13;;
42760;SDS011;31672;47.638;19.026;2023-05-14T01:45:58;6.30;;;4.83;;
42760;SDS011;31672;47.638;19.026;2023-05-14T01:51:02;6.50;;;4.13;;
42760;SDS011;31672;47.638;19.026;2023-05-14T01:56:05;6.13;;;4.70;;
42760;SDS011;31672;47.638;19.026;2023-05-14T02:01:09;5.10;;;3.73;;
42760;SDS011;31672;47.638;19.026;2023-05-14T02:06:12;5.27;;;4.00;;
42760;SDS011;31672;47.638;19.026;2023-05-14T02:11:15;4.87;;;4.00;;
42760;SDS011;31672;47.638;19.026;2023-05-14T02:16:18;7.40;;;5.80;;
42760;SDS011;31672;47.638;19.026;2023-05-14T02:21:21;5.10;;;4.20;;
42760;SDS011;31672;47.638;19.026;2023-05-14T02:26:25;10.87;;;4.97;;
42760;SDS011;31672;47.638;19.026;2023-05-14T02:31:28;4.30;;;3.10;;
42760;SDS011;31672;47.638;19.026;2023-05-14T02:36:31;4.10;;;2.90;;
42760;SDS011;31672;47.638;19.026;2023-05-14T02:41:35;6.73;;;3.00;;
42760;SDS011;31672;47.638;19.026;2023-05-14T02:46:38;6.63;;;4.27;;
42760;SDS011;31672;47.638;19.026;2023-05-14T02:51:41;5.80;;;3.87;;
42760;SDS011;31672;47.638;19.026;2023-05-14T02:56:44;5.47;;;3.70;;
42760;SDS011;31672;47.638;19.026;2023-05-14T03:01:47;7.77;;;4.10;;
42760;SDS011;31672;47.638;19.026;2023-05-14T03:06:51;5.83;;;3.20;;
42760;SDS011;31672;47.638;19.026;2023-05-14T03:11:54;6.77;;;3.50;;
42760;SDS011;31672;47.638;19.026;2023-05-14T03:16:58;5.73;;;3.53;;
42760;SDS011;31672;47.638;19.026;2023-05-14T03:22:01;4.80;;;4.03;;
42760;SDS011;31672;47.638;19.026;2023-05-14T03:27:04;6.10;;;3.50;;
42760;SDS011;31672;47.638;19.026;2023-05-14T03:32:07;4.43;;;3.10;;
42760;SDS011;31672;47.638;19.026;2023-05-14T03:37:10;4.00;;;3.07;;
42760;SDS011;31672;47.638;19.026;2023-05-14T03:42:13;5.37;;;3.50;;
42760;SDS011;31672;47.638;19.026;2023-05-14T03:47:17;7.17;;;2.80;;
42760;SDS011;31672;47.638;19.026;2023-05-14T03:52:20;3.37;;;3.07;;
42760;SDS011;31672;47.638;19.026;2023-05-14T03:57:22;5.10;;;3.43;;
42760;SDS011;31672;47.638;19.026;2023-05-14T04:02:26;6.10;;;3.57;;
42760;SDS011;31672;47.638;19.026;2023-05-14T04:07:30;7.40;;;3.07;;
42760;SDS011;31672;47.638;19.026;2023-05-14T04:12:33;4.30;;;3.37;;
42760;SDS011;31672;47.638;19.026;2023-05-14T04:17:35;4.20;;;3.10;;
42760;SDS011;31672;47.638;19.026;2023-05-14T04:22:38;4.90;;;2.97;;
42760;SDS011;31672;47.638;19.026;2023-05-14T04:27:41;8.60;;;3.47;;
42760;SDS011;31672;47.638;19.026;2023-05-14T04:32:44;5.37;;;3.93;;
42760;SDS011;31672;47.638;19.026;2023-05-14T04:37:47;5.17;;;3.57;;
42760;SDS011;31672;47.638;19.026;2023-05-14T04:42:50;5.17;;;3.20;;
42760;SDS011;31672;47.638;19.026;2023-05-14T04:47:53;5.03;;;2.90;;
42760;SDS011;31672;47.638;19.026;2023-05-14T04:52:57;4.73;;;3.43;;
42760;SDS011;31672;47.638;19.026;2023-05-14T04:57:59;3.97;;;2.90;;
42760;SDS011;31672;47.638;19.026;2023-05-14T05:03:03;6.20;;;4.03;;
42760;SDS011;31672;47.638;19.026;2023-05-14T05:08:06;7.00;;;5.00;;
42760;SDS011;31672;47.638;19.026;2023-05-14T05:13:09;5.57;;;4.23;;
42760;SDS011;31672;47.638;19.026;2023-05-14T05:18:12;5.27;;;3.47;;
42760;SDS011;31672;47.638;19.026;2023-05-14T05:23:15;9.43;;;3.30;;
42760;SDS011;31672;47.638;19.026;2023-05-14T05:28:18;4.10;;;3.03;;
42760;SDS011;31672;47.638;19.026;2023-05-14T05:33:21;4.63;;;3.30;;
42760;SDS011;31672;47.638;19.026;2023-05-14T05:38:24;7.30;;;3.67;;
42760;SDS011;31672;47.638;19.026;2023-05-14T05:43:27;4.60;;;3.30;;
42760;SDS011;31672;47.638;19.026;2023-05-14T05:48:30;3.90;;;3.23;;
42760;SDS011;31672;47.638;19.026;2023-05-14T05:53:33;9.33;;;3.33;;
42760;SDS011;31672;47.638;19.026;2023-05-14T05:58:37;10.60;;;3.73;;
42760;SDS011;31672;47.638;19.026;2023-05-14T06:03:40;5.30;;;3.63;;
42760;SDS011;31672;47.638;19.026;2023-05-14T06:08:44;4.70;;;3.40;;
42760;SDS011;31672;47.638;19.026;2023-05-14T06:13:47;5.40;;;3.47;;
42760;SDS011;31672;47.638;19.026;2023-05-14T06:18:50;4.57;;;3.73;;
42760;SDS011;31672;47.638;19.026;2023-05-14T06:23:54;5.77;;;3.33;;
42760;SDS011;31672;47.638;19.026;2023-05-14T06:28:56;5.03;;;3.50;;
42760;SDS011;31672;47.638;19.026;2023-05-14T06:34:00;3.93;;;3.47;;
42760;SDS011;31672;47.638;19.026;2023-05-14T06:39:03;6.03;;;3.67;;
42760;SDS011;31672;47.638;19.026;2023-05-14T06:44:06;4.70;;;3.87;;
42760;SDS011;31672;47.638;19.026;2023-05-14T06:49:09;7.47;;;4.17;;
42760;SDS011;31672;47.638;19.026;2023-05-14T06:54:12;5.47;;;4.17;;
42760;SDS011;31672;47.638;19.026;2023-05-14T06:59:15;4.23;;;3.77;;
42760;SDS011;31672;47.638;19.026;2023-05-14T07:04:18;5.57;;;3.63;;
42760;SDS011;31672;47.638;19.026;2023-05-14T07:09:21;5.03;;;3.90;;
42760;SDS011;31672;47.638;19.026;2023-05-14T07:14:24;5.20;;;3.53;;
42760;SDS011;31672;47.638;19.026;2023-05-14T07:19:27;6.03;;;4.07;;
42760;SDS011;31672;47.638;19.026;2023-05-14T07:24:31;6.50;;;3.70;;
42760;SDS011;31672;47.638;19.026;2023-05-14T07:29:34;4.03;;;3.43;;
42760;SDS011;31672;47.638;19.026;2023-05-14T07:34:37;5.60;;;3.87;;
42760;SDS011;31672;47.638;19.026;2023-05-14T07:39:40;6.07;;;3.83;;
42760;SDS011;31672;47.638;19.026;2023-05-14T07:44:43;5.73;;;4.27;;
42760;SDS011;31672;47.638;19.026;2023-05-14T07:49:46;5.50;;;3.90;;
42760;SDS011;31672;47.638;19.026;2023-05-14T07:54:49;8.30;;;4.17;;
42760;SDS011;31672;47.638;19.026;2023-05-14T07:59:53;6.32;;;4.20;;
42760;SDS011;31672;47.638;19.026;2023-05-14T08:04:57;9.53;;;5.30;;
42760;SDS011;31672;47.638;19.026;2023-05-14T08:10:01;8.63;;;4.20;;
42760;SDS011;31672;47.638;19.026;2023-05-14T08:15:05;4.97;;;3.97;;
42760;SDS011;31672;47.638;19.026;2023-05-14T08:20:09;6.13;;;3.90;;
42760;SDS011;31672;47.638;19.026;2023-05-14T08:25:13;5.47;;;4.20;;
42760;SDS011;31672;47.638;19.026;2023-05-14T08:30:16;8.00;;;4.10;;
42760;SDS011;31672;47.638;19.026;2023-05-14T08:35:19;6.93;;;4.70;;
42760;SDS011;31672;47.638;19.026;2023-05-14T08:40:23;5.10;;;3.83;;
42760;SDS011;31672;47.638;19.026;2023-05-14T08:45:28;5.60;;;3.73;;
42760;SDS011;31672;47.638;19.026;2023-05-14T08:50:35;9.32;;;4.65;;
42760;SDS011;31672;47.638;19.026;2023-05-14T08:55:38;6.97;;;4.33;;
42760;SDS011;31672;47.638;19.026;2023-05-14T09:00:41;5.37;;;3.83;;
42760;SDS011;31672;47.638;19.026;2023-05-14T09:05:44;4.55;;;3.90;;
42760;SDS011;31672;47.638;19.026;2023-05-14T09:10:47;8.93;;;3.80;;
42760;SDS011;31672;47.638;19.026;2023-05-14T09:15:50;4.50;;;3.97;;
42760;SDS011;31672;47.638;19.026;2023-05-14T09:20:54;6.57;;;4.60;;
42760;SDS011;31672;47.638;19.026;2023-05-14T09:25:57;12.73;;;8.70;;
42760;SDS011;31672;47.638;19.026;2023-05-14T09:31:04;7.93;;;4.50;;
42760;SDS011;31672;47.638;19.026;2023-05-14T09:36:08;5.83;;;4.53;;
42760;SDS011;31672;47.638;19.026;2023-05-14T09:41:11;6.97;;;4.70;;
42760;SDS011;31672;47.638;19.026;2023-05-14T09:46:14;9.40;;;5.50;;
42760;SDS011;31672;47.638;19.026;2023-05-14T09:51:18;9.17;;;4.67;;
42760;SDS011;31672;47.638;19.026;2023-05-14T09:56:22;7.93;;;6.03;;
42760;SDS011;31672;47.638;19.026;2023-05-14T10:01:25;8.83;;;5.87;;
42760;SDS011;31672;47.638;19.026;2023-05-14T10:06:32;8.20;;;5.33;;
42760;SDS011;31672;47.638;19.026;2023-05-14T10:11:41;10.35;;;4.75;;
42760;SDS011;31672;47.638;19.026;2023-05-14T10:16:51;10.40;;;6.70;;
42760;SDS011;31672;47.638;19.026;2023-05-14T10:22:01;11.60;;;6.57;;
42760;SDS011;31672;47.638;19.026;2023-05-14T10:32:11;9.00;;;5.77;;
42760;SDS011;31672;47.638;19.026;2023-05-14T10:37:18;6.35;;;5.47;;
42760;SDS011;31672;47.638;19.026;2023-05-14T10:42:32;6.63;;;5.47;;
42760;SDS011;31672;47.638;19.026;2023-05-14T10:47:45;7.45;;;6.25;;
42760;SDS011;31672;47.638;19.026;2023-05-14T10:52:48;8.37;;;7.13;;
42760;SDS011;31672;47.638;19.026;2023-05-14T10:57:53;8.83;;;6.53;;
42760;SDS011;31672;47.638;19.026;2023-05-14T11:03:02;12.63;;;8.47;;
42760;SDS011;31672;47.638;19.026;2023-05-14T11:08:09;14.87;;;10.33;;
42760;SDS011;31672;47.638;19.026;2023-05-14T11:13:13;10.13;;;7.77;;
42760;SDS011;31672;47.638;19.026;2023-05-14T11:18:24;9.95;;;7.60;;
42760;SDS011;31672;47.638;19.026;2023-05-14T11:23:32;12.10;;;6.97;;
42760;SDS011;31672;47.638;19.026;2023-05-14T11:28:35;8.33;;;7.00;;
42760;SDS011;31672;47.638;19.026;2023-05-14T11:33:39;11.10;;;8.80;;
42760;SDS011;31672;47.638;19.026;2023-05-14T11:38:46;11.87;;;8.77;;
42760;SDS011;31672;47.638;19.026;2023-05-14T11:43:50;10.73;;;8.27;;
42760;SDS011;31672;47.638;19.026;2023-05-14T11:48:53;10.90;;;7.50;;
42760;SDS011;31672;47.638;19.026;2023-05-14T11:53:56;22.77;;;13.37;;
42760;SDS011;31672;47.638;19.026;2023-05-14T11:59:00;15.57;;;9.20;;
42760;SDS011;31672;47.638;19.026;2023-05-14T12:04:03;17.53;;;9.87;;
42760;SDS011;31672;47.638;19.026;2023-05-14T12:09:07;14.33;;;9.33;;
42760;SDS011;31672;47.638;19.026;2023-05-14T12:14:14;9.33;;;7.20;;
42760;SDS011;31672;47.638;19.026;2023-05-14T12:19:22;16.53;;;11.03;;
42760;SDS011;31672;47.638;19.026;2023-05-14T12:24:27;13.97;;;9.33;;
42760;SDS011;31672;47.638;19.026;2023-05-14T12:29:33;10.20;;;8.83;;
42760;SDS011;31672;47.638;19.026;2023-05-14T12:34:40;17.27;;;9.57;;
42760;SDS011;31672;47.638;19.026;2023-05-14T12:39:43;11.30;;;8.67;;
42760;SDS011;31672;47.638;19.026;2023-05-14T12:44:46;13.50;;;8.80;;
42760;SDS011;31672;47.638;19.026;2023-05-14T12:49:49;13.70;;;9.30;;
42760;SDS011;31672;47.638;19.026;2023-05-14T12:54:52;12.83;;;10.30;;
42760;SDS011;31672;47.638;19.026;2023-05-14T12:59:55;17.63;;;11.43;;
42760;SDS011;31672;47.638;19.026;2023-05-14T13:04:59;11.77;;;8.87;;
42760;SDS011;31672;47.638;19.026;2023-05-14T13:10:04;10.80;;;8.73;;
42760;SDS011;31672;47.638;19.026;2023-05-14T13:15:08;10.63;;;8.60;;
42760;SDS011;31672;47.638;19.026;2023-05-14T13:20:11;11.17;;;7.97;;
42760;SDS011;31672;47.638;19.026;2023-05-14T13:25:14;10.53;;;7.30;;
42760;SDS011;31672;47.638;19.026;2023-05-14T13:30:17;10.57;;;8.50;;
42760;SDS011;31672;47.638;19.026;2023-05-14T13:35:21;9.97;;;7.83;;
42760;SDS011;31672;47.638;19.026;2023-05-14T13:40:25;7.73;;;6.40;;
42760;SDS011;31672;47.638;19.026;2023-05-14T13:45:28;12.70;;;7.87;;
42760;SDS011;31672;47.638;19.026;2023-05-14T13:50:30;24.53;;;14.43;;
42760;SDS011;31672;47.638;19.026;2023-05-14T13:55:33;17.90;;;13.00;;
42760;SDS011;31672;47.638;19.026;2023-05-14T14:00:36;15.67;;;11.00;;
42760;SDS011;31672;47.638;19.026;2023-05-14T14:05:40;10.77;;;8.73;;
42760;SDS011;31672;47.638;19.026;2023-05-14T14:10:43;13.50;;;8.87;;
42760;SDS011;31672;47.638;19.026;2023-05-14T14:15:47;13.13;;;9.40;;
42760;SDS011;31672;47.638;19.026;2023-05-14T14:20:50;16.00;;;9.13;;
42760;SDS011;31672;47.638;19.026;2023-05-14T14:25:53;12.90;;;10.07;;
42760;SDS011;31672;47.638;19.026;2023-05-14T14:30:58;14.87;;;10.03;;
42760;SDS011;31672;47.638;19.026;2023-05-14T14:36:01;14.60;;;11.20;;
42760;SDS011;31672;47.638;19.026;2023-05-14T14:41:04;19.90;;;13.47;;
42760;SDS011;31672;47.638;19.026;2023-05-14T14:46:11;15.50;;;10.97;;
42760;SDS011;31672;47.638;19.026;2023-05-14T14:51:14;16.70;;;11.23;;
42760;SDS011;31672;47.638;19.026;2023-05-14T14:56:17;14.13;;;10.50;;
42760;SDS011;31672;47.638;19.026;2023-05-14T15:01:20;14.13;;;9.00;;
42760;SDS011;31672;47.638;19.026;2023-05-14T15:06:24;12.47;;;9.27;;
42760;SDS011;31672;47.638;19.026;2023-05-14T15:11:28;13.73;;;10.13;;
42760;SDS011;31672;47.638;19.026;2023-05-14T15:16:31;13.27;;;10.23;;
42760;SDS011;31672;47.638;19.026;2023-05-14T15:21:35;12.30;;;9.10;;
42760;SDS011;31672;47.638;19.026;2023-05-14T15:26:38;18.67;;;8.83;;
42760;SDS011;31672;47.638;19.026;2023-05-14T15:31:42;8.80;;;6.60;;
42760;SDS011;31672;47.638;19.026;2023-05-14T15:36:48;27.90;;;14.83;;
42760;SDS011;31672;47.638;19.026;2023-05-14T15:41:52;16.43;;;7.03;;
42760;SDS011;31672;47.638;19.026;2023-05-14T15:46:54;10.27;;;5.90;;
42760;SDS011;31672;47.638;19.026;2023-05-14T15:51:58;7.07;;;5.50;;
42760;SDS011;31672;47.638;19.026;2023-05-14T15:57:01;7.07;;;5.83;;
42760;SDS011;31672;47.638;19.026;2023-05-14T16:02:05;9.20;;;6.40;;
42760;SDS011;31672;47.638;19.026;2023-05-14T16:07:10;10.40;;;6.53;;
42760;SDS011;31672;47.638;19.026;2023-05-14T16:12:14;8.60;;;6.10;;
42760;SDS011;31672;47.638;19.026;2023-05-14T16:17:17;10.20;;;5.57;;
42760;SDS011;31672;47.638;19.026;2023-05-14T16:22:20;14.87;;;10.10;;
42760;SDS011;31672;47.638;19.026;2023-05-14T16:27:23;13.57;;;10.20;;
42760;SDS011;31672;47.638;19.026;2023-05-14T16:32:27;7.87;;;4.80;;
42760;SDS011;31672;47.638;19.026;2023-05-14T16:37:30;16.03;;;7.63;;
42760;SDS011;31672;47.638;19.026;2023-05-14T16:42:33;9.07;;;6.77;;
42760;SDS011;31672;47.638;19.026;2023-05-14T16:47:36;9.67;;;6.90;;
42760;SDS011;31672;47.638;19.026;2023-05-14T16:52:39;14.00;;;6.73;;
42760;SDS011;31672;47.638;19.026;2023-05-14T16:57:42;8.43;;;7.20;;
42760;SDS011;31672;47.638;19.026;2023-05-14T17:02:45;7.40;;;5.23;;
42760;SDS011;31672;47.638;19.026;2023-05-14T17:07:50;9.13;;;6.27;;
42760;SDS011;31672;47.638;19.026;2023-05-14T17:12:53;16.70;;;8.63;;
42760;SDS011;31672;47.638;19.026;2023-05-14T17:17:56;10.43;;;7.30;;
42760;SDS011;31672;47.638;19.026;2023-05-14T17:22:59;10.63;;;7.07;;
42760;SDS011;31672;47.638;19.026;2023-05-14T17:28:02;6.97;;;5.40;;
42760;SDS011;31672;47.638;19.026;2023-05-14T17:33:06;8.43;;;4.77;;
42760;SDS011;31672;47.638;19.026;2023-05-14T17:38:09;11.73;;;7.27;;
42760;SDS011;31672;47.638;19.026;2023-05-14T17:43:12;37.70;;;16.13;;
42760;SDS011;31672;47.638;19.026;2023-05-14T17:48:15;35.70;;;17.57;;
42760;SDS011;31672;47.638;19.026;2023-05-14T17:53:18;17.83;;;12.73;;
42760;SDS011;31672;47.638;19.026;2023-05-14T17:58:21;10.33;;;7.30;;
42760;SDS011;31672;47.638;19.026;2023-05-14T18:03:25;10.33;;;7.70;;
42760;SDS011;31672;47.638;19.026;2023-05-14T18:08:28;10.87;;;7.70;;
42760;SDS011;31672;47.638;19.026;2023-05-14T18:13:31;19.77;;;12.47;;
42760;SDS011;31672;47.638;19.026;2023-05-14T18:18:35;23.17;;;13.40;;
42760;SDS011;31672;47.638;19.026;2023-05-14T18:23:38;34.53;;;18.77;;
42760;SDS011;31672;47.638;19.026;2023-05-14T18:28:41;30.80;;;18.90;;
42760;SDS011;31672;47.638;19.026;2023-05-14T18:33:44;19.13;;;12.83;;
42760;SDS011;31672;47.638;19.026;2023-05-14T18:38:47;13.87;;;10.20;;
42760;SDS011;31672;47.638;19.026;2023-05-14T18:43:50;14.67;;;10.60;;
42760;SDS011;31672;47.638;19.026;2023-05-14T18:48:54;23.27;;;14.73;;
42760;SDS011;31672;47.638;19.026;2023-05-14T18:53:57;19.73;;;12.60;;
42760;SDS011;31672;47.638;19.026;2023-05-14T18:59:00;23.70;;;11.37;;
42760;SDS011;31672;47.638;19.026;2023-05-14T19:04:04;14.90;;;9.20;;
42760;SDS011;31672;47.638;19.026;2023-05-14T19:09:07;27.17;;;9.47;;
42760;SDS011;31672;47.638;19.026;2023-05-14T19:14:11;12.13;;;7.47;;
42760;SDS011;31672;47.638;19.026;2023-05-14T19:19:15;14.67;;;7.67;;
42760;SDS011;31672;47.638;19.026;2023-05-14T19:24:18;11.27;;;7.30;;
42760;SDS011;31672;47.638;19.026;2023-05-14T19:29:21;15.87;;;8.83;;
42760;SDS011;31672;47.638;19.026;2023-05-14T19:34:24;14.73;;;8.70;;
42760;SDS011;31672;47.638;19.026;2023-05-14T19:39:28;12.90;;;8.00;;
42760;SDS011;31672;47.638;19.026;2023-05-14T19:44:31;23.63;;;11.73;;
42760;SDS011;31672;47.638;19.026;2023-05-14T19:49:34;19.50;;;9.53;;
42760;SDS011;31672;47.638;19.026;2023-05-14T19:54:37;24.77;;;11.50;;
42760;SDS011;31672;47.638;19.026;2023-05-14T19:59:40;17.23;;;10.07;;
42760;SDS011;31672;47.638;19.026;2023-05-14T20:04:43;13.83;;;8.53;;
42760;SDS011;31672;47.638;19.026;2023-05-14T20:09:47;17.27;;;9.67;;
42760;SDS011;31672;47.638;19.026;2023-05-14T20:14:50;14.03;;;9.10;;
42760;SDS011;31672;47.638;19.026;2023-05-14T20:19:54;17.57;;;10.67;;
42760;SDS011;31672;47.638;19.026;2023-05-14T20:24:57;19.17;;;9.70;;
42760;SDS011;31672;47.638;19.026;2023-05-14T20:30:00;16.67;;;10.23;;
42760;SDS011;31672;47.638;19.026;2023-05-14T20:35:04;12.67;;;7.83;;
42760;SDS011;31672;47.638;19.026;2023-05-14T20:40:08;16.80;;;8.27;;
42760;SDS011;31672;47.638;19.026;2023-05-14T20:45:15;37.80;;;13.57;;
42760;SDS011;31672;47.638;19.026;2023-05-14T20:50:18;40.87;;;11.00;;
42760;SDS011;31672;47.638;19.026;2023-05-14T20:55:23;17.07;;;8.87;;
42760;SDS011;31672;47.638;19.026;2023-05-14T21:00:27;16.53;;;8.40;;
42760;SDS011;31672;47.638;19.026;2023-05-14T21:05:30;21.17;;;8.40;;
42760;SDS011;31672;47.638;19.026;2023-05-14T21:10:34;19.67;;;6.53;;
42760;SDS011;31672;47.638;19.026;2023-05-14T21:15:37;11.77;;;6.37;;
42760;SDS011;31672;47.638;19.026;2023-05-14T21:20:40;12.23;;;5.50;;
42760;SDS011;31672;47.638;19.026;2023-05-14T21:25:43;8.53;;;5.53;;
42760;SDS011;31672;47.638;19.026;2023-05-14T21:30:47;15.20;;;6.17;;
42760;SDS011;31672;47.638;19.026;2023-05-14T21:35:51;11.33;;;6.07;;
42760;SDS011;31672;47.638;19.026;2023-05-14T21:40:54;9.53;;;6.40;;
42760;SDS011;31672;47.638;19.026;2023-05-14T21:45:57;13.30;;;7.07;;
42760;SDS011;31672;47.638;19.026;2023-05-14T21:51:00;9.93;;;6.33;;
42760;SDS011;31672;47.638;19.026;2023-05-14T21:56:03;15.03;;;6.97;;
42760;SDS011;31672;47.638;19.026;2023-05-14T22:01:07;13.93;;;6.80;;
42760;SDS011;31672;47.638;19.026;2023-05-14T22:06:12;16.80;;;7.43;;
42760;SDS011;31672;47.638;19.026;2023-05-14T22:11:15;10.33;;;6.33;;
42760;SDS011;31672;47.638;19.026;2023-05-14T22:16:18;8.90;;;5.97;;
42760;SDS011;31672;47.638;19.026;2023-05-14T22:21:24;12.47;;;6.20;;
42760;SDS011;31672;47.638;19.026;2023-05-14T22:26:27;11.17;;;6.97;;
42760;SDS011;31672;47.638;19.026;2023-05-14T22:31:30;7.40;;;5.30;;
42760;SDS011;31672;47.638;19.026;2023-05-14T22:36:33;17.57;;;7.70;;
42760;SDS011;31672;47.638;19.026;2023-05-14T22:41:36;13.30;;;6.33;;
42760;SDS011;31672;47.638;19.026;2023-05-14T22:46:39;9.03;;;4.87;;
42760;SDS011;31672;47.638;19.026;2023-05-14T22:51:42;10.63;;;6.30;;
42760;SDS011;31672;47.638;19.026;2023-05-14T22:56:45;9.83;;;5.17;;
42760;SDS011;31672;47.638;19.026;2023-05-14T23:01:48;10.20;;;5.70;;
42760;SDS011;31672;47.638;19.026;2023-05-14T23:06:51;9.63;;;6.40;;
42760;SDS011;31672;47.638;19.026;2023-05-14T23:11:54;10.73;;;6.70;;
42760;SDS011;31672;47.638;19.026;2023-05-14T23:16:58;14.10;;;7.03;;
42760;SDS011;31672;47.638;19.026;2023-05-14T23:22:01;10.83;;;6.53;;
42760;SDS011;31672;47.638;19.026;2023-05-14T23:27:04;14.60;;;8.50;;
42760;SDS011;31672;47.638;19.026;2023-05-14T23:32:07;16.33;;;8.33;;
42760;SDS011;31672;47.638;19.026;2023-05-14T23:37:11;17.63;;;8.87;;
42760;SDS011;31672;47.638;19.026;2023-05-14T23:42:14;16.77;;;8.63;;
42760;SDS011;31672;47.638;19.026;2023-05-14T23:47:17;18.37;;;9.07;;
42760;SDS011;31672;47.638;19.026;2023-05-14T23:52:20;15.47;;;9.67;;
42760;SDS011;31672;47.638;19.026;2023-05-14T23:57:23;16.47;;;9.47;;
